Time;durP1;ratioP1;P1;durP2;ratioP2;P2;SDS_P1;SDS_P2;PMS_P1;PMS_P2;Temp;Humidity;BMP_temperature;BMP_pressure;BME280_temperature;BME280_humidity;BME280_pressure;Samples;Min_cycle;Max_cycle;Signal;HPM_P1;HPM_P2
2022/09/05 00:00:21;;;;;;;8.43;2.55;;;;;;;;;;5004024;28;20041;-68
2022/09/05 00:03:07;;;;;;;9.98;2.72;;;;;;;;;;5013206;28;20466;-68
2022/09/05 00:05:42;;;;;;;4.72;1.77;;;;;;;;;;4994573;28;20041;-68
2022/09/05 00:08:30;;;;;;;13.57;2.45;;;;;;;;;;5002203;28;20057;-68
2022/09/05 00:11:02;;;;;;;6.50;2.10;;;;;;;;;;4998800;28;20085;-68
2022/09/05 00:13:30;;;;;;;8.57;2.63;;;;;;;;;;5009903;28;20514;-68
2022/09/05 00:16:00;;;;;;;10.73;2.17;;;;;;;;;;5000144;28;20030;-68
2022/09/05 00:18:29;;;;;;;7.13;2.53;;;;;;;;;;5002506;28;20026;-68
2022/09/05 00:21:14;;;;;;;6.05;2.25;;;;;;;;;;5010569;28;20030;-68
2022/09/05 00:23:46;;;;;;;8.38;2.33;;;;;;;;;;5000771;28;20026;-68
2022/09/05 00:26:31;;;;;;;7.95;2.42;;;;;;;;;;5006763;28;20031;-68
2022/09/05 00:29:09;;;;;;;8.75;2.20;;;;;;;;;;5010598;28;20034;-68
2022/09/05 00:31:44;;;;;;;12.23;2.00;;;;;;;;;;4997655;28;20029;-68
2022/09/05 00:34:10;;;;;;;10.60;2.00;;;;;;;;;;5003673;28;20038;-68
2022/09/05 00:36:36;;;;;;;10.65;2.30;;;;;;;;;;5003894;28;20030;-68
2022/09/05 00:39:04;;;;;;;13.90;3.00;;;;;;;;;;5010749;28;20041;-68
2022/09/05 00:41:31;;;;;;;7.97;2.40;;;;;;;;;;4998503;28;20029;-68
2022/09/05 00:43:59;;;;;;;15.70;2.53;;;;;;;;;;5008950;28;20090;-68
2022/09/05 00:46:31;;;;;;;11.57;2.33;;;;;;;;;;5007677;28;20025;-68
2022/09/05 00:49:06;;;;;;;5.15;1.88;;;;;;;;;;5001040;28;20093;-68
2022/09/05 00:51:36;;;;;;;9.00;2.70;;;;;;;;;;5011247;28;20030;-68
2022/09/05 00:54:21;;;;;;;8.02;2.55;;;;;;;;;;4995681;28;20073;-68
2022/09/05 00:56:50;;;;;;;12.70;2.15;;;;;;;;;;5007758;28;20038;-68
2022/09/05 00:59:28;;;;;;;10.57;2.45;;;;;;;;;;4998446;28;20064;-68
2022/09/05 01:02:03;;;;;;;12.32;2.63;;;;;;;;;;5009456;28;20081;-68
2022/09/05 01:04:37;;;;;;;12.80;2.85;;;;;;;;;;5004879;28;20413;-68
2022/09/05 01:07:07;;;;;;;27.38;3.67;;;;;;;;;;5000186;28;20035;-68
2022/09/05 01:09:51;;;;;;;12.27;2.60;;;;;;;;;;5010926;28;20030;-68
2022/09/05 01:12:18;;;;;;;10.80;2.60;;;;;;;;;;5008531;28;20041;-68
2022/09/05 01:14:44;;;;;;;9.55;3.25;;;;;;;;;;5002369;28;20030;-68
2022/09/05 01:17:28;;;;;;;17.95;3.65;;;;;;;;;;5010433;28;20021;-68
2022/09/05 01:20:07;;;;;;;10.90;2.90;;;;;;;;;;4995356;28;20030;-68
2022/09/05 01:22:33;;;;;;;15.85;2.55;;;;;;;;;;5004662;28;20034;-68
2022/09/05 01:25:22;;;;;;;16.42;3.20;;;;;;;;;;5001039;28;20520;-68
2022/09/05 01:27:53;;;;;;;12.93;2.60;;;;;;;;;;4976772;28;20060;-68
2022/09/05 01:30:38;;;;;;;11.68;2.25;;;;;;;;;;4983160;28;20042;-68
2022/09/05 01:33:04;;;;;;;15.63;2.70;;;;;;;;;;4988164;28;20086;-68
2022/09/05 01:35:41;;;;;;;15.45;3.20;;;;;;;;;;4985361;28;20027;-68
2022/09/05 01:38:19;;;;;;;24.40;3.33;;;;;;;;;;4984312;28;20058;-68
2022/09/05 01:41:05;;;;;;;20.67;3.65;;;;;;;;;;4981030;28;20042;-68
2022/09/05 01:44:01;;;;;;;22.77;3.33;;;;;;;;;;4987879;28;20044;-68
2022/09/05 01:46:30;;;;;;;18.20;2.85;;;;;;;;;;4972856;28;20042;-67
2022/09/05 01:49:08;;;;;;;11.38;2.58;;;;;;;;;;4994378;28;20085;-67
2022/09/05 01:51:40;;;;;;;13.45;2.75;;;;;;;;;;4975364;28;20047;-67
2022/09/05 01:54:15;;;;;;;25.25;4.85;;;;;;;;;;4986630;28;20069;-67
2022/09/05 01:56:44;;;;;;;13.52;2.58;;;;;;;;;;4966006;28;20375;-67
2022/09/05 01:59:32;;;;;;;20.23;3.85;;;;;;;;;;4977903;28;20039;-67
2022/09/05 02:02:18;;;;;;;31.10;3.78;;;;;;;;;;4972757;28;20470;-68
2022/09/05 02:04:47;;;;;;;25.17;3.70;;;;;;;;;;4992631;28;20038;-67
2022/09/05 02:07:22;;;;;;;25.60;5.00;;;;;;;;;;5015227;28;20026;-67
2022/09/05 02:09:51;;;;;;;16.02;2.97;;;;;;;;;;5010899;28;20096;-67
2022/09/05 02:12:23;;;;;;;18.33;3.58;;;;;;;;;;5000103;28;20077;-67
2022/09/05 02:15:24;;;;;;;21.52;4.35;;;;;;;;;;5002415;28;20034;-67
2022/09/05 02:17:51;;;;;;;11.70;2.60;;;;;;;;;;5007579;28;20136;-67
2022/09/05 02:20:29;;;;;;;14.43;3.22;;;;;;;;;;4997814;28;20590;-67
2022/09/05 02:22:55;;;;;;;18.77;3.00;;;;;;;;;;4999563;28;20030;-67
2022/09/05 02:25:27;;;;;;;16.63;3.05;;;;;;;;;;5006296;28;20037;-67
2022/09/05 02:27:59;;;;;;;20.33;4.25;;;;;;;;;;4994310;28;20510;-67
2022/09/05 02:30:29;;;;;;;15.00;3.17;;;;;;;;;;5004016;28;20092;-67
2022/09/05 02:33:07;;;;;;;16.10;3.10;;;;;;;;;;5002429;28;20212;-67
2022/09/05 02:35:46;;;;;;;15.27;3.30;;;;;;;;;;5007603;28;20042;-67
2022/09/05 02:38:21;;;;;;;16.92;3.40;;;;;;;;;;5010802;28;20029;-67
2022/09/05 02:40:56;;;;;;;15.27;3.55;;;;;;;;;;5000680;28;20066;-67
2022/09/05 02:43:41;;;;;;;14.48;2.47;;;;;;;;;;5005618;28;20042;-67
2022/09/05 02:46:13;;;;;;;26.75;5.10;;;;;;;;;;4995466;28;20387;-67
2022/09/05 02:48:54;;;;;;;13.37;2.77;;;;;;;;;;5002373;28;20108;-67
2022/09/05 02:51:29;;;;;;;14.27;2.60;;;;;;;;;;5005271;28;20072;-67
2022/09/05 02:54:00;;;;;;;13.60;2.75;;;;;;;;;;4996328;28;20121;-67
2022/09/05 02:56:41;;;;;;;20.08;3.28;;;;;;;;;;4999241;28;20496;-67
2022/09/05 02:59:10;;;;;;;21.50;3.20;;;;;;;;;;5000865;28;20486;-67
2022/09/05 03:01:55;;;;;;;25.45;3.58;;;;;;;;;;5009094;28;20393;-67
2022/09/05 03:04:35;;;;;;;17.25;3.00;;;;;;;;;;4993892;28;20411;-67
2022/09/05 03:07:06;;;;;;;28.23;4.05;;;;;;;;;;5004007;28;20426;-67
2022/09/05 03:09:58;;;;;;;19.27;3.53;;;;;;;;;;4997350;28;20089;-67
2022/09/05 03:12:42;;;;;;;16.40;3.60;;;;;;;;;;4993400;28;20108;-67
2022/09/05 03:15:19;;;;;;;15.48;2.88;;;;;;;;;;5005098;28;20041;-67
2022/09/05 03:17:54;;;;;;;11.02;2.28;;;;;;;;;;4996126;28;20042;-67
2022/09/05 03:20:33;;;;;;;11.82;2.90;;;;;;;;;;5015443;28;20038;-67
2022/09/05 03:23:17;;;;;;;17.45;3.10;;;;;;;;;;5025479;28;20121;-67
2022/09/05 03:25:46;;;;;;;17.77;3.15;;;;;;;;;;5015091;28;20079;-67
2022/09/05 03:28:31;;;;;;;24.52;3.10;;;;;;;;;;4997394;28;20015;-67
2022/09/05 03:30:57;;;;;;;18.27;3.40;;;;;;;;;;4997127;28;20537;-67
2022/09/05 03:33:23;;;;;;;19.55;3.40;;;;;;;;;;5010195;28;20397;-67
2022/09/05 03:36:08;;;;;;;17.92;4.15;;;;;;;;;;4999886;28;20442;-67
2022/09/05 03:38:53;;;;;;;20.83;3.50;;;;;;;;;;5009732;28;20026;-67
2022/09/05 03:41:34;;;;;;;23.95;3.83;;;;;;;;;;5009263;28;20113;-67
2022/09/05 03:44:18;;;;;;;19.30;3.38;;;;;;;;;;5027369;28;20048;-67
2022/09/05 03:46:47;;;;;;;23.13;5.10;;;;;;;;;;5008684;28;20054;-67
2022/09/05 03:49:31;;;;;;;29.45;4.05;;;;;;;;;;5008170;28;20026;-67
2022/09/05 03:52:11;;;;;;;21.05;3.65;;;;;;;;;;4999500;28;20121;-67
2022/09/05 03:54:49;;;;;;;24.00;4.05;;;;;;;;;;5009075;28;20030;-67
2022/09/05 03:57:34;;;;;;;19.13;3.25;;;;;;;;;;5008227;28;20037;-67
2022/09/05 04:00:19;;;;;;;18.42;3.38;;;;;;;;;;4999317;28;20030;-67
2022/09/05 04:02:57;;;;;;;11.35;2.78;;;;;;;;;;5024888;28;20523;-67
2022/09/05 04:05:32;;;;;;;13.95;3.38;;;;;;;;;;5001293;28;20035;-67
2022/09/05 04:08:07;;;;;;;15.93;3.35;;;;;;;;;;5011798;28;20060;-67
2022/09/05 04:10:44;;;;;;;20.33;3.08;;;;;;;;;;5000718;28;20026;-67
2022/09/05 04:13:16;;;;;;;20.33;3.03;;;;;;;;;;5012491;28;20113;-67
2022/09/05 04:15:43;;;;;;;14.63;3.22;;;;;;;;;;5010814;28;20025;-67
2022/09/05 04:18:17;;;;;;;14.23;3.10;;;;;;;;;;4999211;28;20030;-67
2022/09/05 04:21:03;;;;;;;27.52;3.65;;;;;;;;;;5013432;28;20442;-67
2022/09/05 04:23:29;;;;;;;11.77;2.45;;;;;;;;;;5002700;28;20042;-67
2022/09/05 04:25:55;;;;;;;14.98;3.08;;;;;;;;;;5011862;28;20030;-67
2022/09/05 04:28:41;;;;;;;18.38;3.00;;;;;;;;;;4999160;28;20037;-67
2022/09/05 04:31:37;;;;;;;15.50;2.33;;;;;;;;;;5009848;28;20034;-67
2022/09/05 04:34:17;;;;;;;17.42;3.13;;;;;;;;;;5006984;28;20561;-67
2022/09/05 04:36:43;;;;;;;17.23;2.95;;;;;;;;;;5008476;28;20445;-67
2022/09/05 04:39:09;;;;;;;16.60;2.97;;;;;;;;;;5008499;28;20037;-67
2022/09/05 04:41:41;;;;;;;14.93;3.10;;;;;;;;;;5004466;28;20057;-67
2022/09/05 04:44:10;;;;;;;10.55;2.65;;;;;;;;;;5011286;28;20145;-67
2022/09/05 04:46:41;;;;;;;13.00;3.22;;;;;;;;;;5007989;28;20022;-67
2022/09/05 04:49:13;;;;;;;17.92;4.05;;;;;;;;;;5001637;28;20121;-67
2022/09/05 04:51:58;;;;;;;19.20;3.40;;;;;;;;;;5003657;28;20178;-67
2022/09/05 04:54:28;;;;;;;27.58;3.95;;;;;;;;;;5008764;28;20029;-67
2022/09/05 04:57:09;;;;;;;26.23;3.55;;;;;;;;;;5003286;28;20525;-66
2022/09/05 04:59:43;;;;;;;26.73;5.45;;;;;;;;;;5005139;28;20037;-66
2022/09/05 05:02:18;;;;;;;17.67;4.22;;;;;;;;;;5007436;28;20049;-67
2022/09/05 05:04:45;;;;;;;23.35;3.78;;;;;;;;;;5009448;28;20672;-67
2022/09/05 05:07:17;;;;;;;20.27;5.03;;;;;;;;;;5011477;28;20104;-66
2022/09/05 05:09:47;;;;;;;20.60;3.72;;;;;;;;;;4999651;28;20100;-66
2022/09/05 05:12:16;;;;;;;13.48;3.28;;;;;;;;;;5014611;28;20033;-67
2022/09/05 05:14:59;;;;;;;23.33;3.22;;;;;;;;;;5009764;28;20018;-67
2022/09/05 05:17:44;;;;;;;28.77;6.05;;;;;;;;;;5004989;28;20030;-67
2022/09/05 05:20:23;;;;;;;18.77;5.03;;;;;;;;;;4998694;28;20045;-67
2022/09/05 05:22:59;;;;;;;25.80;3.30;;;;;;;;;;4994694;28;20081;-67
2022/09/05 05:25:26;;;;;;;14.85;3.65;;;;;;;;;;5000505;28;20046;-66
2022/09/05 05:28:07;;;;;;;19.13;4.32;;;;;;;;;;5008127;28;20541;-67
2022/09/05 05:30:34;;;;;;;21.67;3.47;;;;;;;;;;5004859;28;20034;-67
2022/09/05 05:33:01;;;;;;;14.75;2.85;;;;;;;;;;4999277;28;20037;-67
2022/09/05 05:35:30;;;;;;;14.85;3.28;;;;;;;;;;5015446;28;20096;-67
2022/09/05 05:38:08;;;;;;;17.00;4.00;;;;;;;;;;5001541;28;20497;-67
2022/09/05 05:40:35;;;;;;;27.67;4.63;;;;;;;;;;5009649;28;20044;-67
2022/09/05 05:43:15;;;;;;;24.08;4.68;;;;;;;;;;5019585;28;20084;-67
2022/09/05 05:45:41;;;;;;;16.42;3.63;;;;;;;;;;5006224;28;20045;-67
2022/09/05 05:48:19;;;;;;;22.05;4.00;;;;;;;;;;5017470;28;20026;-67
2022/09/05 05:50:48;;;;;;;17.65;3.78;;;;;;;;;;5002110;28;20568;-67
2022/09/05 05:53:21;;;;;;;20.83;3.65;;;;;;;;;;5005159;28;20022;-67
2022/09/05 05:56:05;;;;;;;24.98;4.70;;;;;;;;;;5017854;28;20525;-66
2022/09/05 05:58:47;;;;;;;24.50;3.47;;;;;;;;;;5004995;28;20116;-67
2022/09/05 06:01:31;;;;;;;18.80;3.38;;;;;;;;;;4998480;28;20375;-66
2022/09/05 06:04:16;;;;;;;27.60;3.58;;;;;;;;;;4994323;28;20066;-67
2022/09/05 06:06:42;;;;;;;16.85;3.53;;;;;;;;;;5002357;28;20371;-67
2022/09/05 06:09:27;;;;;;;18.45;3.45;;;;;;;;;;5005968;28;20042;-66
2022/09/05 06:11:56;;;;;;;16.77;3.50;;;;;;;;;;5012163;28;20062;-67
2022/09/05 06:14:22;;;;;;;18.73;2.97;;;;;;;;;;5009466;28;20033;-67
2022/09/05 06:16:57;;;;;;;17.83;2.88;;;;;;;;;;5014868;28;20052;-67
2022/09/05 06:19:42;;;;;;;15.82;3.10;;;;;;;;;;5012607;28;20113;-66
2022/09/05 06:22:27;;;;;;;18.95;3.70;;;;;;;;;;4994213;28;20034;-65
2022/09/05 06:25:13;;;;;;;14.60;3.20;;;;;;;;;;5010932;28;20029;-66
2022/09/05 06:27:58;;;;;;;21.45;3.97;;;;;;;;;;5010796;28;20036;-66
2022/09/05 06:30:24;;;;;;;17.55;3.28;;;;;;;;;;5007890;28;20032;-65
2022/09/05 06:32:57;;;;;;;22.10;3.25;;;;;;;;;;5000290;28;20502;-65
2022/09/05 06:35:25;;;;;;;17.50;3.80;;;;;;;;;;5007178;28;20033;-66
2022/09/05 06:37:51;;;;;;;26.00;3.85;;;;;;;;;;5005139;28;20564;-67
2022/09/05 06:40:18;;;;;;;18.50;4.22;;;;;;;;;;5009420;28;20033;-67
2022/09/05 06:43:04;;;;;;;20.90;3.58;;;;;;;;;;5002132;28;20028;-67
2022/09/05 06:45:31;;;;;;;14.80;3.42;;;;;;;;;;5001398;28;20030;-66
2022/09/05 06:48:10;;;;;;;24.35;3.45;;;;;;;;;;4993144;28;20506;-66
2022/09/05 06:50:51;;;;;;;19.70;3.42;;;;;;;;;;5012175;28;20033;-66
2022/09/05 06:53:23;;;;;;;20.60;3.30;;;;;;;;;;4999568;28;20034;-66
2022/09/05 06:55:56;;;;;;;17.08;3.17;;;;;;;;;;5012943;28;20037;-66
2022/09/05 06:58:22;;;;;;;19.00;3.75;;;;;;;;;;5013249;28;20393;-66
2022/09/05 07:00:49;;;;;;;16.13;3.63;;;;;;;;;;5008002;28;20122;-66
2022/09/05 07:03:22;;;;;;;22.20;3.00;;;;;;;;;;4998697;28;20034;-66
2022/09/05 07:06:06;;;;;;;13.27;2.75;;;;;;;;;;5002915;28;20037;-66
2022/09/05 07:08:46;;;;;;;18.73;3.45;;;;;;;;;;5002345;28;20046;-66
2022/09/05 07:11:39;;;;;;;15.70;3.30;;;;;;;;;;5007039;28;20025;-66
2022/09/05 07:14:13;;;;;;;15.00;3.25;;;;;;;;;;5001645;28;20042;-66
2022/09/05 07:16:42;;;;;;;13.07;2.50;;;;;;;;;;5005661;28;20041;-66
2022/09/05 07:19:10;;;;;;;11.20;2.67;;;;;;;;;;5002146;28;20038;-66
2022/09/05 07:21:42;;;;;;;10.85;2.78;;;;;;;;;;4998483;28;20057;-66
2022/09/05 07:24:17;;;;;;;11.80;2.53;;;;;;;;;;5007751;28;20084;-66
2022/09/05 07:26:47;;;;;;;14.35;2.55;;;;;;;;;;5007948;28;20291;-66
2022/09/05 07:29:19;;;;;;;11.27;3.03;;;;;;;;;;5009813;28;20037;-66
2022/09/05 07:31:47;;;;;;;10.80;2.78;;;;;;;;;;5005891;28;20046;-66
2022/09/05 07:34:19;;;;;;;6.60;2.25;;;;;;;;;;5002844;28;20034;-66
2022/09/05 07:36:47;;;;;;;13.90;2.72;;;;;;;;;;4998821;28;20065;-66
2022/09/05 07:39:17;;;;;;;16.00;3.28;;;;;;;;;;5006621;28;20425;-66
2022/09/05 07:41:49;;;;;;;11.00;2.60;;;;;;;;;;5001207;28;20769;-66
2022/09/05 07:44:15;;;;;;;;;;;;;;;;;;5001109;28;20502;-66
2022/09/05 07:46:45;;;;;;;9.00;2.78;;;;;;;;;;4999739;28;19952;-66
2022/09/05 07:49:13;;;;;;;11.18;2.30;;;;;;;;;;5003404;28;20128;-66
2022/09/05 07:51:46;;;;;;;7.05;2.58;;;;;;;;;;5001068;28;20097;-66
2022/09/05 07:54:19;;;;;;;9.13;2.33;;;;;;;;;;5000758;28;20026;-66
2022/09/05 07:56:45;;;;;;;5.90;2.30;;;;;;;;;;5007371;28;20443;-66
2022/09/05 07:59:13;;;;;;;7.35;2.55;;;;;;;;;;4999270;28;20393;-66
2022/09/05 08:01:42;;;;;;;7.75;2.38;;;;;;;;;;5000009;28;20056;-66
2022/09/05 08:04:08;;;;;;;12.18;3.60;;;;;;;;;;5002972;28;20034;-67
2022/09/05 08:06:34;;;;;;;9.85;2.70;;;;;;;;;;5009502;28;20124;-66
2022/09/05 08:09:04;;;;;;;15.27;3.58;;;;;;;;;;5009163;28;20073;-66
2022/09/05 08:11:32;;;;;;;8.10;2.42;;;;;;;;;;5009317;28;20117;-66
2022/09/05 08:13:59;;;;;;;15.32;3.20;;;;;;;;;;5010315;28;20129;-66
2022/09/05 08:16:25;;;;;;;16.95;3.17;;;;;;;;;;5009329;28;20382;-66
2022/09/05 08:19:23;;;;;;;11.82;2.88;;;;;;;;;;5012769;28;20351;-66
2022/09/05 08:21:51;;;;;;;10.60;3.03;;;;;;;;;;5005499;28;20092;-66
2022/09/05 08:24:20;;;;;;;8.82;2.50;;;;;;;;;;4999048;28;20109;-66
2022/09/05 08:26:51;;;;;;;11.45;3.15;;;;;;;;;;5011033;28;20038;-66
2022/09/05 08:29:33;;;;;;;10.70;2.88;;;;;;;;;;5003512;28;20458;-66
2022/09/05 08:32:10;;;;;;;17.00;3.30;;;;;;;;;;5002334;28;20033;-66
2022/09/05 08:34:37;;;;;;;9.00;2.42;;;;;;;;;;5005328;28;20034;-66
2022/09/05 08:37:04;;;;;;;8.75;2.70;;;;;;;;;;5006537;28;20018;-66
2022/09/05 08:39:31;;;;;;;5.55;2.50;;;;;;;;;;5006762;28;20024;-66
2022/09/05 08:42:00;;;;;;;9.27;2.50;;;;;;;;;;5040491;28;20113;-66
2022/09/05 08:44:39;;;;;;;9.25;2.53;;;;;;;;;;5003877;28;20128;-66
2022/09/05 08:47:18;;;;;;;6.72;2.75;;;;;;;;;;5005699;28;20093;-66
2022/09/05 08:50:02;;;;;;;5.53;2.28;;;;;;;;;;4996491;28;20038;-66
2022/09/05 08:52:47;;;;;;;6.40;2.58;;;;;;;;;;5005578;28;20482;-66
2022/09/05 08:55:33;;;;;;;7.75;2.20;;;;;;;;;;4999704;28;20504;-66
2022/09/05 08:58:15;;;;;;;7.03;3.90;;;;;;;;;;4997806;28;20113;-66
2022/09/05 09:01:01;;;;;;;7.20;2.33;;;;;;;;;;4999937;28;20038;-66
2022/09/05 09:03:43;;;;;;;7.43;2.30;;;;;;;;;;5001517;28;20048;-66
2022/09/05 09:06:15;;;;;;;5.93;1.77;;;;;;;;;;5004252;28;20423;-66
2022/09/05 09:09:11;;;;;;;9.43;2.70;;;;;;;;;;5002446;28;20050;-67
2022/09/05 09:11:57;;;;;;;3.88;1.60;;;;;;;;;;4991296;28;20506;-66
2022/09/05 09:14:42;;;;;;;7.93;1.70;;;;;;;;;;5002900;28;20045;-66
2022/09/05 09:17:17;;;;;;;4.80;1.50;;;;;;;;;;5012142;28;20053;-66
2022/09/05 09:19:44;;;;;;;2.80;1.40;;;;;;;;;;5000278;28;20365;-66
2022/09/05 09:22:18;;;;;;;4.80;1.60;;;;;;;;;;5007447;28;20113;-66
2022/09/05 09:24:59;;;;;;;5.40;1.77;;;;;;;;;;5003065;28;20071;-66
2022/09/05 09:27:45;;;;;;;7.28;1.98;;;;;;;;;;5000003;28;20026;-66
2022/09/05 09:30:12;;;;;;;5.40;1.33;;;;;;;;;;4999391;28;20042;-67
2022/09/05 09:32:46;;;;;;;4.97;1.70;;;;;;;;;;5001143;28;20049;-67
2022/09/05 09:35:31;;;;;;;5.18;1.85;;;;;;;;;;5007175;28;20023;-66
2022/09/05 09:38:05;;;;;;;4.80;1.95;;;;;;;;;;5006590;28;20506;-66
2022/09/05 09:40:40;;;;;;;7.47;1.88;;;;;;;;;;4998684;28;20101;-67
2022/09/05 09:43:26;;;;;;;6.25;2.60;;;;;;;;;;5002396;28;20482;-67
2022/09/05 09:46:19;;;;;;;5.95;1.73;;;;;;;;;;5003012;28;20038;-66
2022/09/05 09:48:45;;;;;;;6.70;1.77;;;;;;;;;;5005079;28;20129;-66
2022/09/05 09:51:17;;;;;;;7.65;2.03;;;;;;;;;;5002606;28;20438;-67
2022/09/05 09:54:08;;;;;;;5.03;2.40;;;;;;;;;;5003567;28;20034;-66
2022/09/05 09:56:46;;;;;;;9.55;1.92;;;;;;;;;;5011767;28;20033;-67
2022/09/05 09:59:31;;;;;;;6.10;1.70;;;;;;;;;;5001052;28;20026;-67
2022/09/05 10:02:21;;;;;;;8.68;2.10;;;;;;;;;;5003343;28;20494;-66
2022/09/05 10:04:47;;;;;;;3.88;1.95;;;;;;;;;;5001828;28;20037;-66
2022/09/05 10:07:37;;;;;;;7.95;2.17;;;;;;;;;;5005220;28;20018;-67
2022/09/05 10:10:21;;;;;;;7.85;1.95;;;;;;;;;;5007754;28;20099;-66
2022/09/05 10:13:07;;;;;;;6.30;2.10;;;;;;;;;;5005253;28;20028;-66
2022/09/05 10:15:45;;;;;;;11.32;2.00;;;;;;;;;;5008273;28;20096;-66
2022/09/05 10:18:23;;;;;;;5.85;2.20;;;;;;;;;;5008728;28;20030;-66
2022/09/05 10:20:56;;;;;;;9.55;1.98;;;;;;;;;;5003641;28;20026;-66
2022/09/05 10:23:28;;;;;;;9.02;1.63;;;;;;;;;;5008246;28;20758;-66
2022/09/05 10:26:00;;;;;;;5.38;2.00;;;;;;;;;;5007177;28;20033;-66
2022/09/05 10:28:39;;;;;;;6.85;2.00;;;;;;;;;;5007990;28;20509;-66
2022/09/05 10:31:14;;;;;;;4.82;2.35;;;;;;;;;;5000283;28;20498;-66
2022/09/05 10:33:49;;;;;;;4.75;2.40;;;;;;;;;;5007188;28;20104;-66
2022/09/05 10:36:15;;;;;;;9.00;2.15;;;;;;;;;;4997413;28;20128;-66
2022/09/05 10:38:45;;;;;;;8.95;2.30;;;;;;;;;;5004838;28;20033;-66
2022/09/05 10:41:14;;;;;;;7.45;2.22;;;;;;;;;;5003593;28;20022;-66
2022/09/05 10:43:53;;;;;;;5.00;1.95;;;;;;;;;;5005191;28;20030;-66
2022/09/05 10:46:22;;;;;;;9.80;2.40;;;;;;;;;;5004405;28;20034;-66
2022/09/05 10:48:52;;;;;;;5.55;2.10;;;;;;;;;;5003157;28;20026;-66
2022/09/05 10:51:20;;;;;;;6.43;2.30;;;;;;;;;;5001236;28;20026;-66
2022/09/05 10:54:01;;;;;;;4.07;1.65;;;;;;;;;;5006887;28;20604;-66
2022/09/05 10:56:48;;;;;;;7.00;1.95;;;;;;;;;;5009177;28;20029;-66
2022/09/05 10:59:28;;;;;;;4.60;1.88;;;;;;;;;;5009276;28;20029;-66
2022/09/05 11:02:06;;;;;;;8.38;1.98;;;;;;;;;;5004036;28;20030;-65
2022/09/05 11:04:35;;;;;;;8.15;1.95;;;;;;;;;;5013249;28;20038;-66
2022/09/05 11:07:20;;;;;;;5.20;1.70;;;;;;;;;;5008307;28;20040;-66
2022/09/05 11:09:46;;;;;;;5.97;1.92;;;;;;;;;;5001076;28;20394;-66
2022/09/05 11:12:15;;;;;;;6.55;2.33;;;;;;;;;;5009765;28;20026;-66
2022/09/05 11:14:52;;;;;;;4.03;1.83;;;;;;;;;;5009225;28;20494;-66
2022/09/05 11:17:24;;;;;;;5.72;2.72;;;;;;;;;;5005719;28;20041;-65
2022/09/05 11:20:07;;;;;;;8.35;1.92;;;;;;;;;;5007256;28;20036;-66
2022/09/05 11:22:37;;;;;;;7.30;2.05;;;;;;;;;;5009615;28;20026;-66
2022/09/05 11:25:06;;;;;;;4.90;1.95;;;;;;;;;;5004520;28;20393;-65
2022/09/05 11:27:36;;;;;;;3.50;1.63;;;;;;;;;;5001910;28;20573;-66
2022/09/05 11:30:05;;;;;;;5.05;2.05;;;;;;;;;;5003492;28;20347;-66
2022/09/05 11:32:34;;;;;;;5.88;1.92;;;;;;;;;;5007103;28;20068;-66
2022/09/05 11:35:06;;;;;;;3.78;1.90;;;;;;;;;;5008331;28;20034;-66
2022/09/05 11:37:51;;;;;;;4.10;1.40;;;;;;;;;;5006672;28;20480;-66
2022/09/05 11:40:23;;;;;;;4.97;1.60;;;;;;;;;;5005952;28;20022;-66
2022/09/05 11:42:58;;;;;;;6.00;2.00;;;;;;;;;;5006499;28;20114;-66
2022/09/05 11:45:34;;;;;;;6.80;1.92;;;;;;;;;;5007673;28;20026;-66
2022/09/05 11:48:21;;;;;;;4.90;2.00;;;;;;;;;;5007046;28;20120;-66
2022/09/05 11:51:01;;;;;;;4.75;1.73;;;;;;;;;;5002488;28;20076;-65
2022/09/05 11:53:46;;;;;;;4.82;1.65;;;;;;;;;;5001564;28;20061;-65
2022/09/05 11:56:31;;;;;;;5.88;1.58;;;;;;;;;;4999894;28;20100;-65
2022/09/05 11:59:00;;;;;;;4.00;1.58;;;;;;;;;;5017294;28;20040;-66
2022/09/05 12:01:33;;;;;;;5.35;1.58;;;;;;;;;;5012033;28;20024;-66
2022/09/05 12:04:17;;;;;;;6.70;2.13;;;;;;;;;;5005475;28;20030;-66
2022/09/05 12:06:47;;;;;;;4.95;1.77;;;;;;;;;;5007563;28;20033;-66
2022/09/05 12:09:32;;;;;;;2.75;1.58;;;;;;;;;;5003309;28;20053;-66
2022/09/05 12:12:22;;;;;;;3.92;1.90;;;;;;;;;;5004661;28;20128;-66
2022/09/05 12:14:54;;;;;;;4.65;1.58;;;;;;;;;;5032169;28;20394;-66
2022/09/05 12:17:28;;;;;;;5.72;1.65;;;;;;;;;;5003751;28;20033;-66
2022/09/05 12:20:01;;;;;;;5.43;1.80;;;;;;;;;;5007003;28;20022;-65
2022/09/05 12:22:34;;;;;;;4.20;1.90;;;;;;;;;;5010974;28;20117;-65
2022/09/05 12:25:11;;;;;;;5.07;2.00;;;;;;;;;;5007543;28;20029;-65
2022/09/05 12:27:38;;;;;;;4.82;1.77;;;;;;;;;;5010626;28;20034;-65
2022/09/05 12:30:05;;;;;;;4.20;1.42;;;;;;;;;;5012277;28;20037;-65
2022/09/05 12:32:32;;;;;;;5.30;1.88;;;;;;;;;;5004959;28;20441;-66
2022/09/05 12:35:00;;;;;;;7.25;1.95;;;;;;;;;;5006045;28;20034;-65
2022/09/05 12:37:29;;;;;;;4.13;2.33;;;;;;;;;;5000730;28;20022;-65
2022/09/05 12:39:58;;;;;;;4.68;1.88;;;;;;;;;;5006362;28;20026;-65
2022/09/05 12:42:24;;;;;;;8.00;1.83;;;;;;;;;;5005678;28;20036;-65
2022/09/05 12:44:50;;;;;;;5.85;2.20;;;;;;;;;;5006285;28;20083;-65
2022/09/05 12:47:18;;;;;;;4.93;2.05;;;;;;;;;;5009253;28;20069;-65
2022/09/05 12:49:44;;;;;;;4.80;1.85;;;;;;;;;;5008521;28;20021;-65
2022/09/05 12:52:17;;;;;;;4.90;1.77;;;;;;;;;;5009317;28;20030;-65
2022/09/05 12:54:53;;;;;;;2.78;1.80;;;;;;;;;;5000735;28;20018;-65
2022/09/05 12:57:26;;;;;;;6.90;1.73;;;;;;;;;;5009438;28;20457;-65
2022/09/05 12:59:56;;;;;;;3.72;1.80;;;;;;;;;;5012339;28;20026;-65
2022/09/05 13:02:27;;;;;;;3.50;2.00;;;;;;;;;;5025535;28;20083;-65
2022/09/05 13:04:57;;;;;;;2.67;1.75;;;;;;;;;;5018500;28;20041;-65
2022/09/05 13:07:26;;;;;;;3.40;1.83;;;;;;;;;;5009618;28;20072;-65
2022/09/05 13:09:59;;;;;;;8.23;2.13;;;;;;;;;;5009476;28;20042;-65
2022/09/05 13:12:37;;;;;;;4.72;1.70;;;;;;;;;;5009299;28;20025;-65
2022/09/05 13:15:11;;;;;;;4.93;1.50;;;;;;;;;;5001636;28;20100;-65
2022/09/05 13:17:58;;;;;;;5.88;1.75;;;;;;;;;;5012648;28;20029;-65
2022/09/05 13:20:43;;;;;;;6.47;1.60;;;;;;;;;;5010508;28;20037;-65
2022/09/05 13:23:10;;;;;;;8.05;2.20;;;;;;;;;;5003378;28;20113;-65
2022/09/05 13:25:39;;;;;;;6.47;2.08;;;;;;;;;;5007470;28;20021;-65
2022/09/05 13:28:07;;;;;;;5.03;1.83;;;;;;;;;;5008248;28;20478;-65
2022/09/05 13:30:35;;;;;;;6.03;1.88;;;;;;;;;;5003400;28;20036;-65
2022/09/05 13:33:02;;;;;;;5.13;2.28;;;;;;;;;;5004512;28;20032;-65
2022/09/05 13:35:32;;;;;;;5.50;2.00;;;;;;;;;;5004758;28;20022;-65
2022/09/05 13:38:26;;;;;;;5.60;1.95;;;;;;;;;;5001709;28;20038;-65
2022/09/05 13:40:59;;;;;;;5.22;2.00;;;;;;;;;;5000272;28;20037;-65
2022/09/05 13:43:28;;;;;;;;;;;;;;;;;;5002768;28;20038;-65
2022/09/05 13:46:05;;;;;;;4.47;1.58;;;;;;;;;;5003457;28;19917;-65
2022/09/05 13:48:50;;;;;;;8.23;2.03;;;;;;;;;;5005867;28;20052;-65
2022/09/05 13:51:31;;;;;;;2.97;1.65;;;;;;;;;;5003010;28;20026;-65
2022/09/05 13:54:08;;;;;;;4.38;2.00;;;;;;;;;;5003248;28;20043;-65
2022/09/05 13:56:39;;;;;;;6.72;1.80;;;;;;;;;;5006039;28;20356;-65
2022/09/05 13:59:08;;;;;;;4.93;1.63;;;;;;;;;;5009359;28;20030;-65
2022/09/05 14:01:44;;;;;;;2.28;1.88;;;;;;;;;;5017346;28;20481;-65
2022/09/05 14:04:29;;;;;;;4.20;2.03;;;;;;;;;;4999226;28;20080;-65
2022/09/05 14:06:55;;;;;;;6.57;2.10;;;;;;;;;;5001288;28;20092;-66
2022/09/05 14:09:40;;;;;;;4.63;2.10;;;;;;;;;;5007284;28;20041;-65
2022/09/05 14:12:12;;;;;;;4.65;2.00;;;;;;;;;;4997840;28;20481;-65
2022/09/05 14:14:46;;;;;;;3.47;1.83;;;;;;;;;;5006726;28;20026;-65
2022/09/05 14:17:15;;;;;;;2.75;1.63;;;;;;;;;;5005989;28;20030;-66
2022/09/05 14:22:33;;;;;;;3.30;2.20;;;;;;;;;;4999600;28;20380;-65
2022/09/05 14:25:00;;;;;;;5.20;2.25;;;;;;;;;;5003014;28;20025;-65
2022/09/05 14:27:28;;;;;;;4.38;2.00;;;;;;;;;;5003686;28;20516;-65
2022/09/05 14:29:55;;;;;;;6.53;2.15;;;;;;;;;;5011358;28;20108;-65
2022/09/05 14:32:28;;;;;;;4.25;1.88;;;;;;;;;;5007427;28;20027;-65
2022/09/05 14:35:06;;;;;;;9.88;2.38;;;;;;;;;;5002861;28;20038;-65
2022/09/05 14:37:41;;;;;;;9.15;2.50;;;;;;;;;;5006168;28;20029;-65
2022/09/05 14:40:07;;;;;;;5.32;2.25;;;;;;;;;;5010008;28;20502;-65
2022/09/05 14:42:52;;;;;;;3.92;2.00;;;;;;;;;;5005428;28;20029;-65
2022/09/05 14:45:36;;;;;;;3.60;2.05;;;;;;;;;;4999292;28;20037;-65
2022/09/05 14:48:06;;;;;;;6.78;2.22;;;;;;;;;;5007505;28;20038;-65
2022/09/05 14:50:47;;;;;;;5.75;2.15;;;;;;;;;;4997869;28;20080;-65
2022/09/05 14:53:13;;;;;;;6.25;2.40;;;;;;;;;;5004949;28;20088;-65
2022/09/05 14:55:58;;;;;;;8.07;3.00;;;;;;;;;;5004528;28;20029;-65
2022/09/05 14:58:25;;;;;;;6.75;2.63;;;;;;;;;;4999940;28;20023;-65
2022/09/05 15:00:57;;;;;;;3.65;1.92;;;;;;;;;;4997098;28;20089;-65
2022/09/05 15:03:27;;;;;;;7.07;2.20;;;;;;;;;;4997130;28;20117;-65
2022/09/05 15:05:54;;;;;;;4.78;2.33;;;;;;;;;;4997819;28;20043;-65
2022/09/05 15:08:25;;;;;;;8.23;2.30;;;;;;;;;;4996423;28;20048;-65
2022/09/05 15:10:54;;;;;;;6.30;2.00;;;;;;;;;;4997219;28;20038;-65
2022/09/05 15:13:22;;;;;;;7.13;2.20;;;;;;;;;;4993234;28;20328;-65
2022/09/05 15:16:06;;;;;;;4.18;1.67;;;;;;;;;;5001105;28;20042;-65
2022/09/05 15:18:36;;;;;;;3.95;2.08;;;;;;;;;;5002649;28;20047;-65
2022/09/05 15:21:20;;;;;;;5.25;1.98;;;;;;;;;;4999918;28;20454;-65
2022/09/05 15:23:56;;;;;;;5.50;2.15;;;;;;;;;;5002567;28;20470;-65
2022/09/05 15:26:22;;;;;;;3.38;1.90;;;;;;;;;;5007208;28;20072;-65